createdAt,value
2019-06-10T00:00:41.911Z,16.20
2019-06-10T00:03:11.693Z,16.10
2019-06-10T00:05:41.441Z,16.20
2019-06-10T00:08:11.904Z,16.10
2019-06-10T00:10:42.100Z,16.10
2019-06-10T00:13:12.094Z,16.10
2019-06-10T00:15:41.425Z,16.10
2019-06-10T00:18:34.198Z,16.00
2019-06-10T00:20:41.398Z,16.00
2019-06-10T00:23:12.003Z,16.00
2019-06-10T00:25:41.804Z,16.00
2019-06-10T00:28:12.096Z,16.00
2019-06-10T00:30:41.678Z,16.00
2019-06-10T00:33:12.663Z,16.00
2019-06-10T00:35:41.552Z,16.00
2019-06-10T00:38:13.864Z,16.00
2019-06-10T00:40:41.890Z,15.90
2019-06-10T00:43:13.339Z,15.90
2019-06-10T00:45:41.517Z,15.90
2019-06-10T00:48:24.316Z,15.90
2019-06-10T00:50:41.857Z,15.80
2019-06-10T00:53:14.076Z,15.80
2019-06-10T00:55:41.882Z,15.80
2019-06-10T00:58:13.845Z,15.80
2019-06-10T01:00:41.873Z,15.80
2019-06-10T01:03:13.483Z,15.70
2019-06-10T01:05:42.215Z,15.70
2019-06-10T01:08:13.958Z,15.70
2019-06-10T01:10:44.086Z,15.70
2019-06-10T01:13:15.284Z,15.60
2019-06-10T01:15:43.458Z,15.60
2019-06-10T01:20:42.695Z,15.60
2019-06-10T01:23:13.606Z,15.60
2019-06-10T01:25:42.602Z,15.60
2019-06-10T01:28:14.732Z,15.60
2019-06-10T01:30:42.335Z,15.60
2019-06-10T01:33:13.197Z,15.70
2019-06-10T01:35:41.842Z,15.70
2019-06-10T01:38:13.491Z,15.80
2019-06-10T01:40:42.260Z,15.80
2019-06-10T01:43:13.961Z,15.90
2019-06-10T01:45:42.346Z,15.90
2019-06-10T01:48:12.063Z,15.90
2019-06-10T01:50:43.245Z,15.90
2019-06-10T01:53:14.429Z,16.00
2019-06-10T01:55:42.433Z,16.00
2019-06-10T01:58:14.384Z,16.00
2019-06-10T02:00:52.371Z,16.00
2019-06-10T02:03:23.820Z,16.10
2019-06-10T02:05:51.808Z,16.10
2019-06-10T02:08:22.185Z,16.10
2019-06-10T02:10:51.205Z,16.20
2019-06-10T02:13:32.684Z,16.30
2019-06-10T02:16:02.579Z,16.40
2019-06-10T02:18:32.169Z,16.90
2019-06-10T02:21:01.529Z,17.90
2019-06-10T02:23:31.462Z,18.90
2019-06-10T02:26:01.375Z,19.60
2019-06-10T02:28:31.871Z,19.70
2019-06-10T02:31:03.840Z,19.60
2019-06-10T02:33:36.142Z,19.60
2019-06-10T02:36:04.168Z,19.80
2019-06-10T02:38:38.803Z,20.40
2019-06-10T02:41:04.822Z,21.20
2019-06-10T02:43:37.425Z,22.00
2019-06-10T02:46:05.391Z,22.70
2019-06-10T02:48:35.443Z,22.80
2019-06-10T02:51:06.933Z,22.50
2019-06-10T02:53:37.210Z,22.10
2019-06-10T02:56:08.074Z,21.80
2019-06-10T02:58:39.568Z,21.80
2019-06-10T03:01:53.714Z,22.30
2019-06-10T03:04:28.145Z,22.70
2019-06-10T03:06:54.314Z,23.70
2019-06-10T03:09:27.431Z,24.30
2019-06-10T03:11:53.887Z,24.30
2019-06-10T03:14:24.137Z,24.50
2019-06-10T03:16:54.813Z,25.00
2019-06-10T03:19:38.444Z,25.50
2019-06-10T03:21:54.020Z,26.30
2019-06-10T03:24:25.172Z,27.30
2019-06-10T03:26:53.296Z,28.60
2019-06-10T03:29:23.753Z,30.00
2019-06-10T03:31:55.255Z,31.00
2019-06-10T03:35:05.898Z,31.30
2019-06-10T03:37:34.844Z,31.00
2019-06-10T03:40:07.909Z,30.20
2019-06-10T03:42:36.768Z,29.50
2019-06-10T03:45:08.436Z,29.10
2019-06-10T03:47:37.386Z,29.30
2019-06-10T03:50:09.363Z,29.80
2019-06-10T03:52:38.170Z,30.60
2019-06-10T03:55:07.454Z,31.50
2019-06-10T03:57:36.285Z,32.20
2019-06-10T04:00:13.280Z,32.20
2019-06-10T04:02:37.634Z,32.00
2019-06-10T04:05:07.567Z,32.00
2019-06-10T04:07:36.375Z,32.30
2019-06-10T04:10:08.315Z,32.90
2019-06-10T04:12:37.144Z,33.90
2019-06-10T04:15:06.123Z,34.80
2019-06-10T04:17:35.029Z,35.20
2019-06-10T04:24:12.934Z,35.20
2019-06-10T04:26:43.575Z,34.70
2019-06-10T04:29:12.910Z,34.60
2019-06-10T04:31:42.536Z,34.10
2019-06-10T04:34:12.417Z,33.50
2019-06-10T04:36:42.380Z,32.50
2019-06-10T04:39:12.576Z,31.60
2019-06-10T04:41:42.699Z,30.50
2019-06-10T04:44:13.207Z,29.90
2019-06-10T04:46:42.769Z,30.20
2019-06-10T04:49:13.182Z,31.50
2019-06-10T04:51:43.413Z,32.70
2019-06-10T04:54:13.383Z,34.00
2019-06-10T04:56:42.978Z,35.50
2019-06-10T04:59:12.571Z,37.00
2019-06-10T05:01:42.524Z,38.40
2019-06-10T05:04:12.520Z,39.30
2019-06-10T05:06:42.206Z,39.50
2019-06-10T05:09:12.417Z,39.10
2019-06-10T05:11:43.193Z,38.60
2019-06-10T05:14:13.233Z,38.20
2019-06-10T05:16:43.123Z,37.70
2019-06-10T05:19:12.883Z,37.30
2019-06-10T05:21:42.512Z,38.00
2019-06-10T05:24:12.487Z,38.90
2019-06-10T05:26:42.558Z,39.90
2019-06-10T05:29:12.073Z,41.30
2019-06-10T05:31:43.546Z,42.20
2019-06-10T05:34:13.030Z,42.30
2019-06-10T05:36:43.532Z,42.80
2019-06-10T05:39:12.761Z,42.80
2019-06-10T05:41:43.282Z,43.20
2019-06-10T05:44:13.399Z,43.90
2019-06-10T05:46:43.556Z,43.80
2019-06-10T05:49:12.722Z,44.10
2019-06-10T05:51:42.361Z,44.60
2019-06-10T05:54:12.752Z,44.40
2019-06-10T05:56:43.237Z,44.10
2019-06-10T05:59:12.676Z,44.50
2019-06-10T06:01:43.114Z,44.90
2019-06-10T06:04:12.701Z,45.40
2019-06-10T06:06:44.719Z,45.50
2019-06-10T06:09:13.007Z,45.20
2019-06-10T06:11:43.087Z,45.40
2019-06-10T06:14:13.301Z,45.50
2019-06-10T06:16:43.211Z,45.80
2019-06-10T06:19:12.752Z,46.10
2019-06-10T06:21:46.625Z,46.40
2019-06-10T06:24:12.827Z,46.50
2019-06-10T06:26:43.298Z,46.80
2019-06-10T06:29:12.959Z,46.80
2019-06-10T06:31:42.957Z,46.40
2019-06-10T06:34:13.778Z,46.60
2019-06-10T06:36:42.662Z,47.20
2019-06-10T06:39:12.921Z,47.50
2019-06-10T06:41:42.720Z,47.90
2019-06-10T06:44:12.962Z,48.20
2019-06-10T06:46:42.876Z,48.00
2019-06-10T06:49:12.773Z,47.00
2019-06-10T06:51:51.699Z,46.40
2019-06-10T06:54:12.638Z,46.30
2019-06-10T06:56:43.826Z,46.10
2019-06-10T06:59:13.181Z,45.30
2019-06-10T07:01:44.175Z,45.00
2019-06-10T07:04:13.111Z,45.10
2019-06-10T07:06:43.369Z,44.20
2019-06-10T07:09:13.548Z,43.40
2019-06-10T07:11:45.140Z,42.60
2019-06-10T07:14:14.336Z,42.00
2019-06-10T07:16:45.918Z,42.40
2019-06-10T07:19:13.638Z,43.10
2019-06-10T07:22:03.768Z,43.80
2019-06-10T07:24:13.059Z,43.90
2019-06-10T07:26:49.535Z,44.40
2019-06-10T07:29:13.199Z,45.00
2019-06-10T07:31:45.982Z,45.50
2019-06-10T07:34:13.063Z,45.80
2019-06-10T07:36:44.091Z,45.50
2019-06-10T07:39:13.361Z,44.60
2019-06-10T07:41:47.480Z,43.60
2019-06-10T07:44:13.030Z,42.10
2019-06-10T07:46:45.183Z,41.00
2019-06-10T07:49:13.560Z,40.70
2019-06-10T07:51:46.116Z,40.70
2019-06-10T07:54:12.883Z,41.00
2019-06-10T07:56:49.530Z,40.40
2019-06-10T07:59:12.917Z,40.20
2019-06-10T08:01:48.791Z,40.20
2019-06-10T08:04:12.339Z,40.40
2019-06-10T08:06:44.025Z,40.30
2019-06-10T08:09:12.657Z,40.90
2019-06-10T08:11:44.895Z,41.80
2019-06-10T08:14:13.036Z,41.80
2019-06-10T08:16:46.019Z,41.00
2019-06-10T08:19:34.843Z,40.30
2019-06-10T08:21:47.042Z,40.10
2019-06-10T08:24:13.723Z,39.40
2019-06-10T08:26:44.286Z,39.00
2019-06-10T08:29:12.979Z,39.10
2019-06-10T08:31:46.356Z,39.10
2019-06-10T08:34:13.485Z,39.10
2019-06-10T08:36:47.134Z,39.80
2019-06-10T08:39:15.785Z,40.10
2019-06-10T08:41:46.043Z,39.60
2019-06-10T08:44:13.785Z,39.30
2019-06-10T08:46:44.949Z,38.90
2019-06-10T08:49:13.083Z,38.80
2019-06-10T08:51:45.435Z,38.20
2019-06-10T08:54:12.815Z,36.80
2019-06-10T08:56:46.796Z,35.30
2019-06-10T08:59:12.421Z,33.80
2019-06-10T09:01:45.946Z,32.50
2019-06-10T09:04:13.256Z,31.50
2019-06-10T09:06:46.364Z,30.60
2019-06-10T09:09:13.027Z,30.00
2019-06-10T09:11:45.691Z,29.50
2019-06-10T09:14:12.747Z,29.10
2019-06-10T09:16:44.360Z,28.80
2019-06-10T09:19:13.129Z,28.60
2019-06-10T09:21:48.139Z,28.50
2019-06-10T09:24:13.030Z,28.30
2019-06-10T09:26:45.081Z,28.30
2019-06-10T09:29:13.451Z,28.30
2019-06-10T09:31:47.622Z,28.30
2019-06-10T09:34:12.940Z,28.40
2019-06-10T09:36:46.217Z,28.60
2019-06-10T09:39:13.074Z,28.70
2019-06-10T09:41:51.388Z,28.90
2019-06-10T09:44:13.100Z,28.70
2019-06-10T09:46:45.875Z,28.60
2019-06-10T09:49:14.912Z,28.50
2019-06-10T09:51:47.373Z,28.50
2019-06-10T09:54:14.369Z,28.40
2019-06-10T09:56:45.613Z,28.20
2019-06-10T09:59:14.492Z,28.10
2019-06-10T10:01:47.309Z,28.10
2019-06-10T10:04:13.754Z,28.10
2019-06-10T10:06:46.639Z,28.00
2019-06-10T10:09:14.044Z,27.90
2019-06-10T10:11:45.814Z,27.90
2019-06-10T10:14:15.982Z,28.00
2019-06-10T10:16:47.890Z,28.00
2019-06-10T10:19:14.247Z,27.90
2019-06-10T10:21:47.767Z,27.90
2019-06-10T10:24:15.091Z,27.80
2019-06-10T10:26:48.358Z,27.80
2019-06-10T10:29:15.748Z,27.90
2019-06-10T10:31:48.692Z,28.00
2019-06-10T10:34:15.024Z,27.80
2019-06-10T10:36:46.414Z,27.70
2019-06-10T10:39:14.254Z,27.60
2019-06-10T10:41:45.232Z,27.50
2019-06-10T10:44:14.673Z,27.50
2019-06-10T10:46:44.216Z,27.50
2019-06-10T10:49:14.342Z,27.60
2019-06-10T10:51:43.119Z,27.60
2019-06-10T10:54:28.427Z,27.50
2019-06-10T10:56:43.662Z,27.40
2019-06-10T10:59:13.460Z,27.40
2019-06-10T11:01:44.013Z,27.40
2019-06-10T11:04:13.438Z,27.40
2019-06-10T11:06:44.297Z,27.20
2019-06-10T11:09:13.169Z,27.20
2019-06-10T11:11:44.082Z,27.30
2019-06-10T11:14:15.083Z,27.40
2019-06-10T11:16:45.153Z,27.40
2019-06-10T11:19:14.174Z,27.40
2019-06-10T11:21:43.352Z,27.20
2019-06-10T11:24:15.857Z,27.10
2019-06-10T11:26:43.275Z,27.10
2019-06-10T11:29:12.268Z,27.20
2019-06-10T11:31:42.566Z,27.30
2019-06-10T11:34:11.686Z,27.40
2019-06-10T11:36:42.392Z,27.40
2019-06-10T11:39:13.166Z,27.40
2019-06-10T11:41:43.081Z,27.40
2019-06-10T11:44:11.897Z,27.30
2019-06-10T11:46:42.876Z,27.30
2019-06-10T11:49:12.581Z,27.30
2019-06-10T11:51:41.604Z,27.40
2019-06-10T11:54:12.623Z,27.50
2019-06-10T11:56:42.176Z,27.50
2019-06-10T11:59:13.414Z,27.50
2019-06-10T12:01:42.642Z,27.40
2019-06-10T12:04:12.866Z,27.50
2019-06-10T12:06:42.621Z,27.40
2019-06-10T12:09:13.709Z,27.50
2019-06-10T12:11:43.665Z,27.50
2019-06-10T12:14:13.031Z,27.50
2019-06-10T12:19:12.870Z,27.50
2019-06-10T12:21:43.478Z,27.50
2019-06-10T12:24:13.835Z,27.50
2019-06-10T12:26:43.519Z,27.40
2019-06-10T12:29:12.647Z,27.40
2019-06-10T12:31:42.838Z,27.30
2019-06-10T12:34:12.538Z,27.30
2019-06-10T12:36:41.549Z,27.30
2019-06-10T12:39:14.275Z,27.30
2019-06-10T12:41:42.954Z,27.40
2019-06-10T12:44:12.444Z,27.20
2019-06-10T12:46:43.194Z,27.20
2019-06-10T12:49:13.093Z,27.00
2019-06-10T12:51:43.073Z,26.80
2019-06-10T12:54:13.146Z,26.60
2019-06-10T12:56:42.976Z,26.40
2019-06-10T12:59:13.576Z,26.40
2019-06-10T13:01:44.760Z,26.40
2019-06-10T13:04:13.874Z,26.30
2019-06-10T13:06:43.956Z,26.30
2019-06-10T13:09:12.993Z,26.40
2019-06-10T13:11:43.348Z,26.40
2019-06-10T13:14:12.985Z,26.40
2019-06-10T13:16:43.281Z,26.40
2019-06-10T13:19:13.169Z,26.40
2019-06-10T13:21:42.704Z,26.40
2019-06-10T13:24:13.764Z,26.50
2019-06-10T13:26:43.205Z,26.80
2019-06-10T13:29:17.294Z,27.00
2019-06-10T13:31:43.540Z,27.10
2019-06-10T13:34:14.701Z,27.20
2019-06-10T13:36:43.111Z,27.20
2019-06-10T13:39:13.505Z,27.20
2019-06-10T13:41:43.736Z,27.10
2019-06-10T13:44:16.537Z,27.10
2019-06-10T13:46:43.505Z,27.10
2019-06-10T13:49:14.888Z,27.10
2019-06-10T13:51:43.941Z,27.30
2019-06-10T13:54:13.988Z,27.50
2019-06-10T13:56:47.428Z,27.60
2019-06-10T13:59:14.260Z,27.60
2019-06-10T14:01:43.290Z,27.70
2019-06-10T14:04:21.263Z,27.80
2019-06-10T14:06:49.731Z,27.90
2019-06-10T14:09:16.517Z,28.00
2019-06-10T14:11:43.461Z,28.10
2019-06-10T14:14:18.406Z,28.10
2019-06-10T14:16:47.116Z,27.80
2019-06-10T14:19:16.414Z,27.50
2019-06-10T14:21:45.385Z,27.20
2019-06-10T14:24:16.192Z,26.90
2019-06-10T14:26:45.606Z,26.70
2019-06-10T14:29:16.161Z,26.60
2019-06-10T14:31:47.728Z,26.80
2019-06-10T14:34:18.015Z,26.90
2019-06-10T14:36:46.049Z,26.90
2019-06-10T14:39:16.035Z,27.00
2019-06-10T14:41:45.040Z,27.20
2019-06-10T14:44:17.414Z,27.30
2019-06-10T14:46:44.281Z,27.20
2019-06-10T14:49:14.046Z,27.10
2019-06-10T14:51:43.663Z,27.00
2019-06-10T14:54:17.478Z,27.10
2019-06-10T14:56:53.024Z,27.20
2019-06-10T14:59:15.994Z,27.20
2019-06-10T15:01:43.871Z,27.20
2019-06-10T15:04:14.853Z,27.20
2019-06-10T15:06:43.404Z,27.20
2019-06-10T15:09:13.606Z,27.30
2019-06-10T15:11:42.885Z,27.40
2019-06-10T15:14:14.192Z,27.30
2019-06-10T15:16:43.746Z,27.30
2019-06-10T15:19:19.965Z,27.30
2019-06-10T15:25:27.981Z,27.30
2019-06-10T15:27:54.728Z,27.40
2019-06-10T15:30:27.177Z,27.40
2019-06-10T15:32:54.088Z,27.30
2019-06-10T15:35:24.494Z,27.20
2019-06-10T15:37:53.466Z,27.20
2019-06-10T15:40:23.043Z,27.20
2019-06-10T15:42:53.252Z,27.20
2019-06-10T15:45:22.436Z,27.20
2019-06-10T15:47:53.130Z,27.10
2019-06-10T15:50:23.791Z,27.10
2019-06-10T15:52:52.519Z,27.10
2019-06-10T15:55:37.804Z,27.00
2019-06-10T15:57:54.152Z,27.00
2019-06-10T16:00:28.924Z,26.90
2019-06-10T16:02:53.107Z,26.90
2019-06-10T16:05:25.180Z,26.90
2019-06-10T16:07:52.988Z,26.80
2019-06-10T16:10:26.661Z,26.80
2019-06-10T16:12:52.936Z,26.70
2019-06-10T16:15:26.080Z,26.60
2019-06-10T16:17:53.546Z,26.50
2019-06-10T16:20:23.549Z,26.60
2019-06-10T16:22:52.570Z,26.40
2019-06-10T16:25:26.061Z,26.30
2019-06-10T16:27:54.403Z,26.30
2019-06-10T16:30:23.312Z,26.10
2019-06-10T16:32:53.263Z,26.10
2019-06-10T16:35:23.903Z,26.10
2019-06-10T16:37:55.884Z,26.00
2019-06-10T16:40:25.795Z,25.90
2019-06-10T16:42:54.817Z,25.90
2019-06-10T16:45:29.096Z,25.70
2019-06-10T16:47:54.263Z,25.70
2019-06-10T16:50:25.720Z,25.60
2019-06-10T16:52:53.775Z,25.60
2019-06-10T16:55:25.351Z,25.50
2019-06-10T16:57:59.456Z,25.50
2019-06-10T17:00:26.058Z,25.40
2019-06-10T17:02:54.991Z,25.30
2019-06-10T17:05:27.036Z,25.20
2019-06-10T17:07:54.326Z,25.20
2019-06-10T17:10:24.023Z,25.10
2019-06-10T17:19:50.999Z,25.00
2019-06-10T17:22:21.296Z,24.90
2019-06-10T17:24:50.336Z,24.80
2019-06-10T17:27:22.278Z,24.70
2019-06-10T17:29:51.909Z,24.70
2019-06-10T17:32:23.589Z,24.60
2019-06-10T17:34:52.616Z,24.50
2019-06-10T17:37:22.325Z,24.50
2019-06-10T17:39:53.026Z,24.60
2019-06-10T17:42:27.795Z,24.60
2019-06-10T17:44:52.993Z,24.70
2019-06-10T17:47:25.831Z,24.70
2019-06-10T17:49:52.467Z,24.70
2019-06-10T17:52:21.961Z,24.70
2019-06-10T17:54:52.577Z,24.70
2019-06-10T17:57:23.591Z,24.50
2019-06-10T17:59:52.468Z,24.50
2019-06-10T18:02:23.029Z,24.40
2019-06-10T18:04:52.616Z,24.30
2019-06-10T18:07:22.729Z,24.10
2019-06-10T18:09:53.001Z,24.10
2019-06-10T18:12:22.350Z,24.00
2019-06-10T18:14:52.423Z,24.00
2019-06-10T18:17:23.431Z,23.90
2019-06-10T18:19:53.264Z,23.90
2019-06-10T18:22:22.881Z,23.90
2019-06-10T18:24:52.307Z,23.90
2019-06-10T18:27:22.042Z,23.90
2019-06-10T18:29:51.751Z,23.90
2019-06-10T18:32:22.870Z,23.90
2019-06-10T18:34:52.122Z,23.90
2019-06-10T18:37:22.757Z,23.90
2019-06-10T18:39:52.177Z,23.90
2019-06-10T18:42:23.395Z,23.90
2019-06-10T18:44:52.200Z,23.80
2019-06-10T18:47:22.392Z,23.90
2019-06-10T18:49:52.729Z,23.90
2019-06-10T18:52:23.349Z,23.80
2019-06-10T18:54:52.851Z,23.70
2019-06-10T18:57:22.444Z,23.80
2019-06-10T18:59:52.535Z,23.60
2019-06-10T19:02:22.650Z,23.60
2019-06-10T19:04:54.425Z,23.50
2019-06-10T19:07:22.694Z,23.40
2019-06-10T19:09:52.901Z,23.40
2019-06-10T19:12:22.451Z,23.30
2019-06-10T19:14:52.282Z,23.30
2019-06-10T19:17:23.075Z,23.30
2019-06-10T19:19:53.309Z,23.20
2019-06-10T19:22:22.601Z,23.20
2019-06-10T19:24:52.965Z,23.20
2019-06-10T19:27:23.852Z,23.10
2019-06-10T19:29:54.828Z,23.10
2019-06-10T19:32:23.170Z,23.00
2019-06-10T19:34:52.167Z,23.00
2019-06-10T19:37:22.124Z,23.00
2019-06-10T19:39:53.973Z,22.90
2019-06-10T19:42:21.564Z,22.90
2019-06-10T19:44:52.272Z,22.80
2019-06-10T19:47:23.348Z,22.80
2019-06-10T19:49:52.213Z,22.70
2019-06-10T19:52:23.336Z,22.70
2019-06-10T19:54:53.107Z,22.70
2019-06-10T19:57:22.087Z,22.60
2019-06-10T20:00:05.040Z,22.60
2019-06-10T20:02:22.473Z,22.60
2019-06-10T20:04:52.786Z,22.50
2019-06-10T20:07:22.999Z,22.50
2019-06-10T20:09:52.214Z,22.50
2019-06-10T20:12:22.932Z,22.40
2019-06-10T20:14:56.821Z,22.40
2019-06-10T20:17:24.954Z,22.40
2019-06-10T20:19:53.877Z,22.40
2019-06-10T20:22:22.914Z,22.30
2019-06-10T20:24:52.474Z,22.30
2019-06-10T20:27:22.680Z,22.20
2019-06-10T20:30:04.652Z,22.20
2019-06-10T20:32:22.693Z,22.20
2019-06-10T20:34:52.858Z,22.20
2019-06-10T20:37:22.561Z,22.10
2019-06-10T20:39:53.665Z,22.10
2019-06-10T20:42:23.063Z,22.10
2019-06-10T20:44:52.217Z,22.10
2019-06-10T20:47:22.979Z,22.10
2019-06-10T20:49:55.802Z,22.00
2019-06-10T20:52:22.234Z,22.00
2019-06-10T20:54:53.220Z,22.00
2019-06-10T20:57:22.625Z,21.90
2019-06-10T20:59:52.216Z,21.80
2019-06-10T21:02:22.453Z,21.90
2019-06-10T21:04:53.233Z,21.80
2019-06-10T21:07:23.692Z,21.80
2019-06-10T21:09:54.973Z,21.80
2019-06-10T21:12:23.793Z,21.80
2019-06-10T21:14:53.117Z,21.80
2019-06-10T21:17:22.796Z,21.80
2019-06-10T21:19:53.768Z,21.80
2019-06-10T21:22:22.345Z,21.80
2019-06-10T21:24:53.401Z,21.80
2019-06-10T21:27:23.880Z,21.70
2019-06-10T21:29:54.746Z,21.70
2019-06-10T21:32:22.554Z,21.70
2019-06-10T21:34:53.453Z,21.70
2019-06-10T21:37:22.664Z,21.60
2019-06-10T21:39:55.196Z,21.60
2019-06-10T21:42:22.891Z,21.50
2019-06-10T21:44:52.120Z,21.50
2019-06-10T21:47:23.314Z,21.50
2019-06-10T21:49:53.552Z,21.50
2019-06-10T21:52:21.968Z,21.50
2019-06-10T21:54:50.813Z,21.50
2019-06-10T21:57:21.975Z,21.50
2019-06-10T21:59:51.518Z,21.50
2019-06-10T22:02:22.987Z,21.50
2019-06-10T22:04:53.765Z,21.50
2019-06-10T22:07:22.451Z,21.60
2019-06-10T22:09:54.165Z,21.50
2019-06-10T22:12:22.044Z,21.50
2019-06-10T22:14:50.799Z,21.50
2019-06-10T22:17:19.612Z,21.50
2019-06-10T22:19:48.577Z,21.50
2019-06-10T22:22:17.462Z,21.50
2019-06-10T22:24:46.681Z,21.50
2019-06-10T22:27:15.593Z,21.50
2019-06-10T22:29:45.061Z,21.50
2019-06-10T22:32:13.979Z,21.50
2019-06-10T22:34:42.853Z,21.50
2019-06-10T22:37:12.467Z,21.50
2019-06-10T22:39:42.064Z,21.60
2019-06-10T22:42:12.243Z,21.50
2019-06-10T22:44:42.430Z,21.50
2019-06-10T22:47:12.152Z,21.50
2019-06-10T22:49:43.044Z,21.50
2019-06-10T22:52:12.641Z,21.50
2019-06-10T22:54:43.067Z,21.50
2019-06-10T22:57:12.965Z,21.50
2019-06-10T22:59:42.527Z,21.50
2019-06-10T23:02:13.108Z,21.50
2019-06-10T23:04:43.418Z,21.50
2019-06-10T23:07:13.220Z,21.50
2019-06-10T23:09:42.894Z,21.40
2019-06-10T23:12:12.098Z,21.40
2019-06-10T23:14:43.422Z,21.30
2019-06-10T23:17:14.058Z,21.30
2019-06-10T23:19:42.888Z,21.20
2019-06-10T23:22:12.630Z,21.20
2019-06-10T23:24:42.639Z,21.20
2019-06-10T23:27:13.087Z,21.10
2019-06-10T23:29:42.771Z,21.10
2019-06-10T23:32:12.982Z,21.10
2019-06-10T23:34:42.346Z,21.00
2019-06-10T23:37:12.607Z,21.00
2019-06-10T23:39:42.648Z,21.00
2019-06-10T23:42:12.204Z,21.00
2019-06-10T23:44:41.321Z,21.00
2019-06-10T23:47:12.621Z,21.00
2019-06-10T23:49:40.584Z,21.00
2019-06-10T23:52:09.366Z,21.00
2019-06-10T23:54:38.144Z,21.00
2019-06-10T23:57:06.938Z,21.00
2019-06-10T23:59:35.709Z,20.90
